This is the latest recevied weather packets stored in our database for station/object AE0NK. If no packets are shown the sender has not sent any weather packets the latest 1 day(s).
| Time | Temp. | Humidity | Pressure | Rain* | Wind** | Luminosity | Snow |
|---|---|---|---|---|---|---|---|
| 1778046813 | 7.22° C | 57% | 1012.7 hPa | 0 mm | 0 m/s | 0 W/m² | - |
| 1778046507 | 7.78° C | 56% | 1012.7 hPa | 0 mm | 0 m/s | 0 W/m² | - |
| 1778046204 | 7.78° C | 55% | 1012.6 hPa | 0 mm | 0 m/s | 0 W/m² | - |
| 1778045902 | 7.78° C | 55% | 1012.5 hPa | 0 mm | 0 m/s | 0 W/m² | - |
| 1778045598 | 7.78° C | 53% | 1012.5 hPa | 0 mm | 0 m/s | 0 W/m² | - |
| 1778045294 | 8.33° C | 53% | 1012.4 hPa | 0 mm | 0 m/s | 0 W/m² | - |
| 1778045011 | 8.33° C | 52% | 1012.4 hPa | 0 mm | 0 m/s | 0 W/m² | - |
| 1778044708 | 8.33° C | 52% | 1012.5 hPa | 0 mm | 0 m/s | 0 W/m² | - |
| 1778044405 | 8.33° C | 50% | 1012.5 hPa | 0 mm | 0 m/s | 0 W/m² | - |
| 1778044101 | 8.89° C | 50% | 1012.5 hPa | 0 mm | 0 m/s | 0 W/m² | - |
| 1778043792 | 8.89° C | 49% | 1012.4 hPa | 0 mm | 0 m/s | 0 W/m² | - |
| 1778043494 | 8.89° C | 47% | 1012.4 hPa | 0 mm | 0 m/s | 0 W/m² | - |
| 1778043211 | 8.89° C | 47% | 1012.3 hPa | 0 mm | 0 m/s | 0 W/m² | - |
| 1778042908 | 9.44° C | 47% | 1012.2 hPa | 0 mm | 0 m/s | 0 W/m² | - |
| 1778042605 | 9.44° C | 47% | 1012.1 hPa | 0 mm | 0.45 m/s, 308° | 0 W/m² | - |
| 1778042305 | 9.44° C | 50% | 1012 hPa | 0 mm | 0 m/s | 0 W/m² | - |
| 1778041998 | 9.44° C | 46% | 1012.2 hPa | 0 mm | 0 m/s | 0 W/m² | - |
| 1778041696 | 10° C | 45% | 1012.2 hPa | 0 mm | 0 m/s | 0 W/m² | - |
| 1778041394 | 10° C | 45% | 1012.1 hPa | 0 mm | 0 m/s | 0 W/m² | - |
| 1778041093 | 10° C | 45% | 1012.1 hPa | 0 mm | 0 m/s | 0 W/m² | - |
| 1778040811 | 10° C | 45% | 1012.1 hPa | 0 mm | 0 m/s | 0 W/m² | - |
| 1778040508 | 10° C | 46% | 1012.1 hPa | 0 mm | 0 m/s | 0 W/m² | - |
| 1778040205 | 10.56° C | 45% | 1011.9 hPa | 0 mm | 0 m/s | 0 W/m² | - |
| 1778039902 | 10.56° C | 46% | 1011.9 hPa | 0 mm | 0.45 m/s, 350° | 0 W/m² | - |
| 1778039601 | 10.56° C | 46% | 1011.8 hPa | 0 mm | 0 m/s | 0 W/m² | - |
* Rain latest hour (hover to see other rain measurements)
** Current wind speed in m/s (hover to see current wind gust speed)